sensor_id;sensor_type;location;lat;lon;timestamp;temperature;humidity
16503;DHT22;53067;48.114;11.694;2022-08-21T00:01:35;19.50;83.30
16503;DHT22;53067;48.114;11.694;2022-08-21T00:06:53;19.50;83.20
16503;DHT22;53067;48.114;11.694;2022-08-21T00:09:21;19.50;83.20
16503;DHT22;53067;48.114;11.694;2022-08-21T00:11:48;19.50;83.00
16503;DHT22;53067;48.114;11.694;2022-08-21T00:14:16;19.40;82.80
16503;DHT22;53067;48.114;11.694;2022-08-21T00:16:44;19.40;82.90
16503;DHT22;53067;48.114;11.694;2022-08-21T00:19:12;19.40;83.00
16503;DHT22;53067;48.114;11.694;2022-08-21T00:21:39;19.40;82.80
16503;DHT22;53067;48.114;11.694;2022-08-21T00:24:07;19.30;83.10
16503;DHT22;53067;48.114;11.694;2022-08-21T00:26:35;19.30;83.20
16503;DHT22;53067;48.114;11.694;2022-08-21T00:29:03;19.20;83.10
16503;DHT22;53067;48.114;11.694;2022-08-21T00:31:31;19.20;83.00
16503;DHT22;53067;48.114;11.694;2022-08-21T00:33:58;19.30;82.70
16503;DHT22;53067;48.114;11.694;2022-08-21T00:36:26;19.20;82.70
16503;DHT22;53067;48.114;11.694;2022-08-21T00:38:55;19.20;82.80
16503;DHT22;53067;48.114;11.694;2022-08-21T00:41:23;19.20;82.70
16503;DHT22;53067;48.114;11.694;2022-08-21T00:43:51;19.10;83.10
16503;DHT22;53067;48.114;11.694;2022-08-21T00:49:08;19.10;82.80
16503;DHT22;53067;48.114;11.694;2022-08-21T00:51:38;19.00;82.80
16503;DHT22;53067;48.114;11.694;2022-08-21T00:54:07;19.10;82.80
16503;DHT22;53067;48.114;11.694;2022-08-21T00:56:36;19.00;82.60
16503;DHT22;53067;48.114;11.694;2022-08-21T00:59:05;19.00;82.60
16503;DHT22;53067;48.114;11.694;2022-08-21T01:01:33;18.90;82.70
16503;DHT22;53067;48.114;11.694;2022-08-21T01:04:01;18.90;82.40
16503;DHT22;53067;48.114;11.694;2022-08-21T01:06:29;18.90;82.50
16503;DHT22;53067;48.114;11.694;2022-08-21T01:08:56;18.80;82.40
16503;DHT22;53067;48.114;11.694;2022-08-21T01:11:24;18.80;82.60
16503;DHT22;53067;48.114;11.694;2022-08-21T01:13:52;18.80;82.50
16503;DHT22;53067;48.114;11.694;2022-08-21T01:16:22;18.80;82.40
16503;DHT22;53067;48.114;11.694;2022-08-21T01:18:50;18.80;82.50
16503;DHT22;53067;48.114;11.694;2022-08-21T01:21:21;18.70;82.50
16503;DHT22;53067;48.114;11.694;2022-08-21T01:23:51;18.70;82.60
16503;DHT22;53067;48.114;11.694;2022-08-21T01:26:23;18.70;82.30
16503;DHT22;53067;48.114;11.694;2022-08-21T01:29:27;18.70;82.30
16503;DHT22;53067;48.114;11.694;2022-08-21T01:31:28;18.70;83.00
16503;DHT22;53067;48.114;11.694;2022-08-21T01:33:58;18.70;82.10
16503;DHT22;53067;48.114;11.694;2022-08-21T01:36:26;18.70;82.00
16503;DHT22;53067;48.114;11.694;2022-08-21T01:38:54;18.70;82.00
16503;DHT22;53067;48.114;11.694;2022-08-21T01:41:22;18.70;81.90
16503;DHT22;53067;48.114;11.694;2022-08-21T01:43:49;18.60;82.00
16503;DHT22;53067;48.114;11.694;2022-08-21T01:46:17;18.60;81.80
16503;DHT22;53067;48.114;11.694;2022-08-21T01:48:44;18.60;81.80
16503;DHT22;53067;48.114;11.694;2022-08-21T01:51:12;18.60;81.70
16503;DHT22;53067;48.114;11.694;2022-08-21T01:53:39;18.50;81.50
16503;DHT22;53067;48.114;11.694;2022-08-21T01:56:09;18.50;81.70
16503;DHT22;53067;48.114;11.694;2022-08-21T01:58:37;18.50;81.90
16503;DHT22;53067;48.114;11.694;2022-08-21T02:01:05;18.40;81.70
16503;DHT22;53067;48.114;11.694;2022-08-21T02:03:33;18.40;81.80
16503;DHT22;53067;48.114;11.694;2022-08-21T02:06:00;18.40;82.00
16503;DHT22;53067;48.114;11.694;2022-08-21T02:08:29;18.30;82.70
16503;DHT22;53067;48.114;11.694;2022-08-21T02:10:56;18.30;82.00
16503;DHT22;53067;48.114;11.694;2022-08-21T02:13:24;18.30;82.00
16503;DHT22;53067;48.114;11.694;2022-08-21T02:15:52;18.30;81.90
16503;DHT22;53067;48.114;11.694;2022-08-21T02:18:20;18.30;82.10
16503;DHT22;53067;48.114;11.694;2022-08-21T02:20:49;18.30;82.10
16503;DHT22;53067;48.114;11.694;2022-08-21T02:23:17;18.30;82.00
16503;DHT22;53067;48.114;11.694;2022-08-21T02:25:44;18.30;81.80
16503;DHT22;53067;48.114;11.694;2022-08-21T02:28:14;18.30;81.70
16503;DHT22;53067;48.114;11.694;2022-08-21T02:30:45;18.30;81.60
16503;DHT22;53067;48.114;11.694;2022-08-21T02:33:13;18.20;81.50
16503;DHT22;53067;48.114;11.694;2022-08-21T02:35:42;18.20;81.50
16503;DHT22;53067;48.114;11.694;2022-08-21T02:38:13;18.20;81.60
16503;DHT22;53067;48.114;11.694;2022-08-21T02:40:43;18.20;81.60
16503;DHT22;53067;48.114;11.694;2022-08-21T02:43:11;18.10;81.30
16503;DHT22;53067;48.114;11.694;2022-08-21T02:45:39;18.10;81.30
16503;DHT22;53067;48.114;11.694;2022-08-21T02:48:10;18.10;81.20
16503;DHT22;53067;48.114;11.694;2022-08-21T02:50:44;18.00;81.40
16503;DHT22;53067;48.114;11.694;2022-08-21T02:53:13;18.00;81.40
16503;DHT22;53067;48.114;11.694;2022-08-21T02:55:44;18.00;81.50
16503;DHT22;53067;48.114;11.694;2022-08-21T02:58:15;18.00;81.80
16503;DHT22;53067;48.114;11.694;2022-08-21T03:00:43;18.00;82.00
16503;DHT22;53067;48.114;11.694;2022-08-21T03:03:11;17.90;81.70
16503;DHT22;53067;48.114;11.694;2022-08-21T03:05:42;17.90;81.80
16503;DHT22;53067;48.114;11.694;2022-08-21T03:08:12;17.90;81.90
16503;DHT22;53067;48.114;11.694;2022-08-21T03:10:43;17.90;81.90
16503;DHT22;53067;48.114;11.694;2022-08-21T03:13:11;17.90;81.80
16503;DHT22;53067;48.114;11.694;2022-08-21T03:15:40;17.90;81.70
16503;DHT22;53067;48.114;11.694;2022-08-21T03:18:09;17.90;81.60
16503;DHT22;53067;48.114;11.694;2022-08-21T03:20:38;17.80;81.70
16503;DHT22;53067;48.114;11.694;2022-08-21T03:23:07;17.80;81.90
16503;DHT22;53067;48.114;11.694;2022-08-21T03:25:35;17.80;81.80
16503;DHT22;53067;48.114;11.694;2022-08-21T03:28:05;17.80;81.50
16503;DHT22;53067;48.114;11.694;2022-08-21T03:30:33;17.80;81.70
16503;DHT22;53067;48.114;11.694;2022-08-21T03:33:01;17.80;81.70
16503;DHT22;53067;48.114;11.694;2022-08-21T03:35:29;17.80;81.70
16503;DHT22;53067;48.114;11.694;2022-08-21T03:37:57;17.80;81.50
16503;DHT22;53067;48.114;11.694;2022-08-21T03:40:25;17.80;81.40
16503;DHT22;53067;48.114;11.694;2022-08-21T03:42:53;17.80;81.40
16503;DHT22;53067;48.114;11.694;2022-08-21T03:45:21;17.80;81.50
16503;DHT22;53067;48.114;11.694;2022-08-21T03:47:57;17.80;81.30
16503;DHT22;53067;48.114;11.694;2022-08-21T03:50:28;17.80;81.30
16503;DHT22;53067;48.114;11.694;2022-08-21T03:52:56;17.70;81.50
16503;DHT22;53067;48.114;11.694;2022-08-21T03:55:25;17.70;82.40
16503;DHT22;53067;48.114;11.694;2022-08-21T03:57:53;17.70;81.40
16503;DHT22;53067;48.114;11.694;2022-08-21T04:00:22;17.70;81.20
16503;DHT22;53067;48.114;11.694;2022-08-21T04:02:50;17.70;81.40
16503;DHT22;53067;48.114;11.694;2022-08-21T04:05:18;17.70;81.30
16503;DHT22;53067;48.114;11.694;2022-08-21T04:07:47;17.60;81.00
16503;DHT22;53067;48.114;11.694;2022-08-21T04:10:15;17.60;81.40
16503;DHT22;53067;48.114;11.694;2022-08-21T04:12:43;17.60;81.10
16503;DHT22;53067;48.114;11.694;2022-08-21T04:15:10;17.50;81.60
16503;DHT22;53067;48.114;11.694;2022-08-21T04:17:39;17.50;81.80
16503;DHT22;53067;48.114;11.694;2022-08-21T04:20:07;17.40;81.90
16503;DHT22;53067;48.114;11.694;2022-08-21T04:22:34;17.40;81.90
16503;DHT22;53067;48.114;11.694;2022-08-21T04:25:02;17.40;81.90
16503;DHT22;53067;48.114;11.694;2022-08-21T04:27:30;17.50;81.80
16503;DHT22;53067;48.114;11.694;2022-08-21T04:29:57;17.50;81.60
16503;DHT22;53067;48.114;11.694;2022-08-21T04:32:26;17.50;81.60
16503;DHT22;53067;48.114;11.694;2022-08-21T04:35:03;17.50;81.60
16503;DHT22;53067;48.114;11.694;2022-08-21T04:37:30;17.50;81.30
16503;DHT22;53067;48.114;11.694;2022-08-21T04:39:58;17.50;81.70
16503;DHT22;53067;48.114;11.694;2022-08-21T04:42:27;17.50;81.70
16503;DHT22;53067;48.114;11.694;2022-08-21T04:44:55;17.50;81.40
16503;DHT22;53067;48.114;11.694;2022-08-21T04:47:24;17.50;82.40
16503;DHT22;53067;48.114;11.694;2022-08-21T04:49:52;17.50;81.60
16503;DHT22;53067;48.114;11.694;2022-08-21T04:52:21;17.50;81.30
16503;DHT22;53067;48.114;11.694;2022-08-21T04:54:50;17.50;81.40
16503;DHT22;53067;48.114;11.694;2022-08-21T04:57:19;17.60;81.30
16503;DHT22;53067;48.114;11.694;2022-08-21T04:59:48;17.60;81.30
16503;DHT22;53067;48.114;11.694;2022-08-21T05:02:17;17.60;81.30
16503;DHT22;53067;48.114;11.694;2022-08-21T05:04:49;17.50;80.90
16503;DHT22;53067;48.114;11.694;2022-08-21T05:07:22;17.50;81.50
16503;DHT22;53067;48.114;11.694;2022-08-21T05:09:46;17.50;81.30
16503;DHT22;53067;48.114;11.694;2022-08-21T05:12:14;17.60;81.30
16503;DHT22;53067;48.114;11.694;2022-08-21T05:14:42;17.60;81.50
16503;DHT22;53067;48.114;11.694;2022-08-21T05:17:09;17.60;81.40
16503;DHT22;53067;48.114;11.694;2022-08-21T05:19:37;17.60;81.50
16503;DHT22;53067;48.114;11.694;2022-08-21T05:22:05;17.60;81.60
16503;DHT22;53067;48.114;11.694;2022-08-21T05:24:33;17.60;81.60
16503;DHT22;53067;48.114;11.694;2022-08-21T05:27:00;17.60;81.70
16503;DHT22;53067;48.114;11.694;2022-08-21T05:29:28;17.70;81.70
16503;DHT22;53067;48.114;11.694;2022-08-21T05:31:56;17.70;81.70
16503;DHT22;53067;48.114;11.694;2022-08-21T05:34:24;17.80;81.60
16503;DHT22;53067;48.114;11.694;2022-08-21T05:36:51;17.80;81.80
16503;DHT22;53067;48.114;11.694;2022-08-21T05:39:19;17.80;81.90
16503;DHT22;53067;48.114;11.694;2022-08-21T05:41:46;17.90;81.80
16503;DHT22;53067;48.114;11.694;2022-08-21T05:44:14;17.90;82.00
16503;DHT22;53067;48.114;11.694;2022-08-21T05:46:41;17.90;82.00
16503;DHT22;53067;48.114;11.694;2022-08-21T05:49:10;17.90;81.90
16503;DHT22;53067;48.114;11.694;2022-08-21T05:51:39;18.00;82.00
16503;DHT22;53067;48.114;11.694;2022-08-21T05:54:08;18.00;81.80
16503;DHT22;53067;48.114;11.694;2022-08-21T05:56:35;18.00;82.00
16503;DHT22;53067;48.114;11.694;2022-08-21T05:59:03;18.10;82.10
16503;DHT22;53067;48.114;11.694;2022-08-21T06:01:31;18.10;81.90
16503;DHT22;53067;48.114;11.694;2022-08-21T06:03:58;18.10;82.10
16503;DHT22;53067;48.114;11.694;2022-08-21T06:06:26;18.20;81.10
16503;DHT22;53067;48.114;11.694;2022-08-21T06:08:54;18.20;81.30
16503;DHT22;53067;48.114;11.694;2022-08-21T06:11:21;18.30;81.30
16503;DHT22;53067;48.114;11.694;2022-08-21T06:13:49;18.30;81.10
16503;DHT22;53067;48.114;11.694;2022-08-21T06:16:17;18.30;80.70
16503;DHT22;53067;48.114;11.694;2022-08-21T06:18:45;18.40;80.20
16503;DHT22;53067;48.114;11.694;2022-08-21T06:21:13;18.40;80.20
16503;DHT22;53067;48.114;11.694;2022-08-21T06:23:41;18.50;80.40
16503;DHT22;53067;48.114;11.694;2022-08-21T06:26:11;18.50;80.00
16503;DHT22;53067;48.114;11.694;2022-08-21T06:28:39;18.60;79.90
16503;DHT22;53067;48.114;11.694;2022-08-21T06:31:18;18.60;79.90
16503;DHT22;53067;48.114;11.694;2022-08-21T06:33:42;18.60;80.20
16503;DHT22;53067;48.114;11.694;2022-08-21T06:36:09;18.60;79.80
16503;DHT22;53067;48.114;11.694;2022-08-21T06:38:37;18.70;79.90
16503;DHT22;53067;48.114;11.694;2022-08-21T06:41:06;18.70;79.70
16503;DHT22;53067;48.114;11.694;2022-08-21T06:43:34;18.80;79.20
16503;DHT22;53067;48.114;11.694;2022-08-21T06:46:02;18.90;79.40
16503;DHT22;53067;48.114;11.694;2022-08-21T06:48:29;18.90;78.80
16503;DHT22;53067;48.114;11.694;2022-08-21T06:51:00;19.00;78.90
16503;DHT22;53067;48.114;11.694;2022-08-21T06:53:28;19.00;79.00
16503;DHT22;53067;48.114;11.694;2022-08-21T06:55:55;19.10;78.30
16503;DHT22;53067;48.114;11.694;2022-08-21T06:58:23;19.20;78.20
16503;DHT22;53067;48.114;11.694;2022-08-21T07:00:51;19.20;77.00
16503;DHT22;53067;48.114;11.694;2022-08-21T07:03:22;19.30;76.80
16503;DHT22;53067;48.114;11.694;2022-08-21T07:05:50;19.30;75.40
16503;DHT22;53067;48.114;11.694;2022-08-21T07:08:18;19.40;76.00
16503;DHT22;53067;48.114;11.694;2022-08-21T07:10:47;19.50;75.40
16503;DHT22;53067;48.114;11.694;2022-08-21T07:13:15;19.50;75.60
16503;DHT22;53067;48.114;11.694;2022-08-21T07:15:43;19.60;75.00
16503;DHT22;53067;48.114;11.694;2022-08-21T07:18:11;19.60;73.40
16503;DHT22;53067;48.114;11.694;2022-08-21T07:20:40;19.70;73.00
16503;DHT22;53067;48.114;11.694;2022-08-21T07:23:16;19.80;71.80
16503;DHT22;53067;48.114;11.694;2022-08-21T07:25:39;19.80;70.80
16503;DHT22;53067;48.114;11.694;2022-08-21T07:28:07;19.90;71.20
16503;DHT22;53067;48.114;11.694;2022-08-21T07:30:34;20.00;70.90
16503;DHT22;53067;48.114;11.694;2022-08-21T07:33:02;20.00;69.80
16503;DHT22;53067;48.114;11.694;2022-08-21T07:35:29;20.10;68.40
16503;DHT22;53067;48.114;11.694;2022-08-21T07:37:59;20.10;67.50
16503;DHT22;53067;48.114;11.694;2022-08-21T07:40:27;20.20;68.70
16503;DHT22;53067;48.114;11.694;2022-08-21T07:42:54;20.30;69.10
16503;DHT22;53067;48.114;11.694;2022-08-21T07:45:22;20.30;69.00
16503;DHT22;53067;48.114;11.694;2022-08-21T07:47:52;20.40;68.40
16503;DHT22;53067;48.114;11.694;2022-08-21T07:50:20;20.40;68.40
16503;DHT22;53067;48.114;11.694;2022-08-21T07:52:47;20.50;68.70
16503;DHT22;53067;48.114;11.694;2022-08-21T07:55:17;20.60;68.10
16503;DHT22;53067;48.114;11.694;2022-08-21T07:57:46;20.70;67.90
16503;DHT22;53067;48.114;11.694;2022-08-21T08:00:17;20.80;68.10
16503;DHT22;53067;48.114;11.694;2022-08-21T08:02:47;20.90;67.10
16503;DHT22;53067;48.114;11.694;2022-08-21T08:05:18;20.90;66.90
16503;DHT22;53067;48.114;11.694;2022-08-21T08:07:46;20.90;66.40
16503;DHT22;53067;48.114;11.694;2022-08-21T08:10:14;21.00;66.00
16503;DHT22;53067;48.114;11.694;2022-08-21T08:12:43;21.10;66.10
16503;DHT22;53067;48.114;11.694;2022-08-21T08:15:15;21.10;66.00
16503;DHT22;53067;48.114;11.694;2022-08-21T08:17:42;21.20;66.50
16503;DHT22;53067;48.114;11.694;2022-08-21T08:20:11;21.20;65.30
16503;DHT22;53067;48.114;11.694;2022-08-21T08:22:39;21.30;65.50
16503;DHT22;53067;48.114;11.694;2022-08-21T08:25:09;21.40;65.90
16503;DHT22;53067;48.114;11.694;2022-08-21T08:27:37;21.50;65.30
16503;DHT22;53067;48.114;11.694;2022-08-21T08:30:07;21.60;64.40
16503;DHT22;53067;48.114;11.694;2022-08-21T08:32:35;21.60;64.40
16503;DHT22;53067;48.114;11.694;2022-08-21T08:35:04;21.70;63.80
16503;DHT22;53067;48.114;11.694;2022-08-21T08:37:33;21.70;64.30
16503;DHT22;53067;48.114;11.694;2022-08-21T08:40:04;21.80;63.80
16503;DHT22;53067;48.114;11.694;2022-08-21T08:42:39;21.80;63.40
16503;DHT22;53067;48.114;11.694;2022-08-21T08:45:19;21.90;62.90
16503;DHT22;53067;48.114;11.694;2022-08-21T08:47:49;21.90;62.40
16503;DHT22;53067;48.114;11.694;2022-08-21T08:50:36;22.10;62.60
16503;DHT22;53067;48.114;11.694;2022-08-21T08:53:02;22.10;60.40
16503;DHT22;53067;48.114;11.694;2022-08-21T08:55:44;22.20;61.90
16503;DHT22;53067;48.114;11.694;2022-08-21T08:58:17;22.40;61.70
16503;DHT22;53067;48.114;11.694;2022-08-21T09:00:45;22.50;61.00
16503;DHT22;53067;48.114;11.694;2022-08-21T09:03:13;22.60;59.40
16503;DHT22;53067;48.114;11.694;2022-08-21T09:05:45;22.60;58.90
16503;DHT22;53067;48.114;11.694;2022-08-21T09:14:17;22.80;59.40
16503;DHT22;53067;48.114;11.694;2022-08-21T09:17:01;22.90;58.30
16503;DHT22;53067;48.114;11.694;2022-08-21T09:25:17;23.10;57.90
16503;DHT22;53067;48.114;11.694;2022-08-21T09:27:44;23.20;58.10
16503;DHT22;53067;48.114;11.694;2022-08-21T09:30:12;23.30;57.80
16503;DHT22;53067;48.114;11.694;2022-08-21T09:32:39;23.30;57.80
16503;DHT22;53067;48.114;11.694;2022-08-21T09:35:16;23.40;57.40
16503;DHT22;53067;48.114;11.694;2022-08-21T09:37:52;23.60;57.40
16503;DHT22;53067;48.114;11.694;2022-08-21T09:40:42;23.70;57.60
16503;DHT22;53067;48.114;11.694;2022-08-21T09:45:41;23.80;56.40
16503;DHT22;53067;48.114;11.694;2022-08-21T09:48:21;23.80;55.40
16503;DHT22;53067;48.114;11.694;2022-08-21T09:50:49;23.80;55.70
16503;DHT22;53067;48.114;11.694;2022-08-21T09:53:30;23.90;55.30
16503;DHT22;53067;48.114;11.694;2022-08-21T09:55:59;23.80;55.80
16503;DHT22;53067;48.114;11.694;2022-08-21T09:58:47;23.90;56.60
16503;DHT22;53067;48.114;11.694;2022-08-21T10:01:24;24.10;56.40
16503;DHT22;53067;48.114;11.694;2022-08-21T10:04:10;24.10;54.90
16503;DHT22;53067;48.114;11.694;2022-08-21T10:06:38;24.20;55.20
16503;DHT22;53067;48.114;11.694;2022-08-21T10:09:15;24.20;55.60
16503;DHT22;53067;48.114;11.694;2022-08-21T10:11:42;24.50;55.20
16503;DHT22;53067;48.114;11.694;2022-08-21T10:19:44;24.80;55.30
16503;DHT22;53067;48.114;11.694;2022-08-21T10:30:59;24.80;54.30
16503;DHT22;53067;48.114;11.694;2022-08-21T10:33:38;24.80;54.50
16503;DHT22;53067;48.114;11.694;2022-08-21T10:36:18;24.80;55.10
16503;DHT22;53067;48.114;11.694;2022-08-21T10:38:58;24.90;55.60
16503;DHT22;53067;48.114;11.694;2022-08-21T10:41:46;24.90;55.70
16503;DHT22;53067;48.114;11.694;2022-08-21T10:44:15;24.80;54.80
16503;DHT22;53067;48.114;11.694;2022-08-21T10:47:01;24.70;55.20
16503;DHT22;53067;48.114;11.694;2022-08-21T10:55:14;25.00;55.60
16503;DHT22;53067;48.114;11.694;2022-08-21T10:57:55;25.10;55.40
16503;DHT22;53067;48.114;11.694;2022-08-21T11:00:36;25.30;55.40
16503;DHT22;53067;48.114;11.694;2022-08-21T11:05:54;25.70;55.00
16503;DHT22;53067;48.114;11.694;2022-08-21T11:08:26;25.80;53.70
16503;DHT22;53067;48.114;11.694;2022-08-21T11:16:45;26.10;52.40
16503;DHT22;53067;48.114;11.694;2022-08-21T11:22:11;26.10;52.10
16503;DHT22;53067;48.114;11.694;2022-08-21T11:24:50;26.10;52.40
16503;DHT22;53067;48.114;11.694;2022-08-21T11:30:19;25.90;52.50
16503;DHT22;53067;48.114;11.694;2022-08-21T11:33:14;25.90;53.10
16503;DHT22;53067;48.114;11.694;2022-08-21T11:46:42;25.90;53.70
16503;DHT22;53067;48.114;11.694;2022-08-21T11:54:55;25.90;52.90
16503;DHT22;53067;48.114;11.694;2022-08-21T12:00:26;26.20;51.70
16503;DHT22;53067;48.114;11.694;2022-08-21T12:02:52;26.40;50.80
16503;DHT22;53067;48.114;11.694;2022-08-21T12:05:33;26.50;48.10
16503;DHT22;53067;48.114;11.694;2022-08-21T12:08:09;26.70;46.50
16503;DHT22;53067;48.114;11.694;2022-08-21T12:10:38;26.80;47.50
16503;DHT22;53067;48.114;11.694;2022-08-21T12:13:10;27.00;47.80
16503;DHT22;53067;48.114;11.694;2022-08-21T12:15:37;27.20;44.60
16503;DHT22;53067;48.114;11.694;2022-08-21T12:18:29;27.20;44.00
16503;DHT22;53067;48.114;11.694;2022-08-21T12:20:39;27.30;45.30
16503;DHT22;53067;48.114;11.694;2022-08-21T12:26:30;27.60;44.90
16503;DHT22;53067;48.114;11.694;2022-08-21T12:28:22;27.70;45.10
16503;DHT22;53067;48.114;11.694;2022-08-21T12:30:48;27.80;45.70
16503;DHT22;53067;48.114;11.694;2022-08-21T12:33:22;27.70;44.80
16503;DHT22;53067;48.114;11.694;2022-08-21T12:35:50;27.80;46.10
16503;DHT22;53067;48.114;11.694;2022-08-21T12:38:25;27.70;46.80
16503;DHT22;53067;48.114;11.694;2022-08-21T12:41:09;27.60;47.50
16503;DHT22;53067;48.114;11.694;2022-08-21T12:43:43;27.50;47.50
16503;DHT22;53067;48.114;11.694;2022-08-21T12:46:20;27.30;48.00
16503;DHT22;53067;48.114;11.694;2022-08-21T12:49:00;27.20;48.40
16503;DHT22;53067;48.114;11.694;2022-08-21T12:51:31;27.10;48.70
16503;DHT22;53067;48.114;11.694;2022-08-21T12:53:59;26.90;48.60
16503;DHT22;53067;48.114;11.694;2022-08-21T12:56:29;26.80;48.90
16503;DHT22;53067;48.114;11.694;2022-08-21T12:59:02;26.70;49.20
16503;DHT22;53067;48.114;11.694;2022-08-21T13:01:33;26.60;49.50
16503;DHT22;53067;48.114;11.694;2022-08-21T13:04:09;26.60;49.30
16503;DHT22;53067;48.114;11.694;2022-08-21T13:06:39;26.80;49.30
16503;DHT22;53067;48.114;11.694;2022-08-21T13:09:12;27.20;49.00
16503;DHT22;53067;48.114;11.694;2022-08-21T13:11:43;27.60;47.80
16503;DHT22;53067;48.114;11.694;2022-08-21T13:14:14;28.00;46.50
16503;DHT22;53067;48.114;11.694;2022-08-21T13:16:42;28.20;45.60
16503;DHT22;53067;48.114;11.694;2022-08-21T13:19:11;28.50;44.50
16503;DHT22;53067;48.114;11.694;2022-08-21T13:21:41;28.50;44.70
16503;DHT22;53067;48.114;11.694;2022-08-21T13:24:33;28.50;44.70
16503;DHT22;53067;48.114;11.694;2022-08-21T13:26:57;28.50;44.90
16503;DHT22;53067;48.114;11.694;2022-08-21T13:29:30;28.60;44.40
16503;DHT22;53067;48.114;11.694;2022-08-21T13:32:01;28.60;42.40
16503;DHT22;53067;48.114;11.694;2022-08-21T13:34:33;28.50;43.40
16503;DHT22;53067;48.114;11.694;2022-08-21T13:37:05;28.40;42.90
16503;DHT22;53067;48.114;11.694;2022-08-21T13:39:33;28.40;43.50
16503;DHT22;53067;48.114;11.694;2022-08-21T13:42:03;28.40;44.10
16503;DHT22;53067;48.114;11.694;2022-08-21T13:44:44;28.50;44.30
16503;DHT22;53067;48.114;11.694;2022-08-21T13:47:14;28.50;44.10
16503;DHT22;53067;48.114;11.694;2022-08-21T13:49:45;28.40;44.00
16503;DHT22;53067;48.114;11.694;2022-08-21T13:52:21;28.30;43.90
16503;DHT22;53067;48.114;11.694;2022-08-21T13:54:57;28.30;43.30
16503;DHT22;53067;48.114;11.694;2022-08-21T13:57:28;28.40;43.80
16503;DHT22;53067;48.114;11.694;2022-08-21T14:00:27;28.40;43.20
16503;DHT22;53067;48.114;11.694;2022-08-21T14:03:01;28.60;43.00
16503;DHT22;53067;48.114;11.694;2022-08-21T14:08:33;29.10;41.80
16503;DHT22;53067;48.114;11.694;2022-08-21T14:10:57;29.20;40.40
16503;DHT22;53067;48.114;11.694;2022-08-21T14:13:47;29.20;40.40
16503;DHT22;53067;48.114;11.694;2022-08-21T14:16:23;29.20;41.50
16503;DHT22;53067;48.114;11.694;2022-08-21T14:19:07;29.10;41.90
16503;DHT22;53067;48.114;11.694;2022-08-21T14:21:32;29.00;41.50
16503;DHT22;53067;48.114;11.694;2022-08-21T14:24:10;28.80;41.30
16503;DHT22;53067;48.114;11.694;2022-08-21T14:29:20;28.50;41.90
16503;DHT22;53067;48.114;11.694;2022-08-21T14:34:40;28.10;42.00
16503;DHT22;53067;48.114;11.694;2022-08-21T14:37:27;28.00;42.10
16503;DHT22;53067;48.114;11.694;2022-08-21T14:39:55;27.90;42.30
16503;DHT22;53067;48.114;11.694;2022-08-21T14:42:22;27.80;42.70
16503;DHT22;53067;48.114;11.694;2022-08-21T14:44:50;27.80;42.70
16503;DHT22;53067;48.114;11.694;2022-08-21T14:47:18;27.70;41.80
16503;DHT22;53067;48.114;11.694;2022-08-21T14:49:46;27.50;42.10
16503;DHT22;53067;48.114;11.694;2022-08-21T14:52:14;27.50;43.10
16503;DHT22;53067;48.114;11.694;2022-08-21T14:54:41;27.40;43.10
16503;DHT22;53067;48.114;11.694;2022-08-21T14:57:12;27.30;43.10
16503;DHT22;53067;48.114;11.694;2022-08-21T14:59:40;27.20;42.80
16503;DHT22;53067;48.114;11.694;2022-08-21T15:04:56;27.00;43.70
16503;DHT22;53067;48.114;11.694;2022-08-21T15:07:23;26.90;44.10
16503;DHT22;53067;48.114;11.694;2022-08-21T15:09:51;26.80;43.80
16503;DHT22;53067;48.114;11.694;2022-08-21T15:12:19;26.70;43.80
16503;DHT22;53067;48.114;11.694;2022-08-21T15:14:46;26.60;43.10
16503;DHT22;53067;48.114;11.694;2022-08-21T15:17:14;26.50;43.70
16503;DHT22;53067;48.114;11.694;2022-08-21T15:19:42;26.50;43.70
16503;DHT22;53067;48.114;11.694;2022-08-21T15:22:09;26.40;43.90
16503;DHT22;53067;48.114;11.694;2022-08-21T15:24:38;26.40;44.30
16503;DHT22;53067;48.114;11.694;2022-08-21T15:27:08;26.30;45.00
16503;DHT22;53067;48.114;11.694;2022-08-21T15:29:37;26.30;45.10
16503;DHT22;53067;48.114;11.694;2022-08-21T15:32:23;26.30;44.30
16503;DHT22;53067;48.114;11.694;2022-08-21T15:34:51;26.30;44.20
16503;DHT22;53067;48.114;11.694;2022-08-21T15:37:26;26.30;44.20
16503;DHT22;53067;48.114;11.694;2022-08-21T15:39:53;26.20;43.10
16503;DHT22;53067;48.114;11.694;2022-08-21T15:42:21;26.20;43.10
16503;DHT22;53067;48.114;11.694;2022-08-21T15:44:48;26.10;43.70
16503;DHT22;53067;48.114;11.694;2022-08-21T15:47:19;26.10;43.70
16503;DHT22;53067;48.114;11.694;2022-08-21T15:49:47;26.10;43.10
16503;DHT22;53067;48.114;11.694;2022-08-21T15:52:16;26.10;43.90
16503;DHT22;53067;48.114;11.694;2022-08-21T15:54:44;26.10;43.80
16503;DHT22;53067;48.114;11.694;2022-08-21T15:57:14;26.10;43.60
16503;DHT22;53067;48.114;11.694;2022-08-21T15:59:47;26.10;44.20
16503;DHT22;53067;48.114;11.694;2022-08-21T16:02:15;26.20;43.80
16503;DHT22;53067;48.114;11.694;2022-08-21T16:04:44;26.20;43.50
16503;DHT22;53067;48.114;11.694;2022-08-21T16:07:12;26.20;44.10
16503;DHT22;53067;48.114;11.694;2022-08-21T16:09:39;26.20;43.90
16503;DHT22;53067;48.114;11.694;2022-08-21T16:12:09;26.20;43.90
16503;DHT22;53067;48.114;11.694;2022-08-21T16:14:37;26.20;43.20
16503;DHT22;53067;48.114;11.694;2022-08-21T16:17:06;26.20;42.90
16503;DHT22;53067;48.114;11.694;2022-08-21T16:19:33;26.20;42.90
16503;DHT22;53067;48.114;11.694;2022-08-21T16:22:02;26.20;42.90
16503;DHT22;53067;48.114;11.694;2022-08-21T16:24:30;26.20;43.00
16503;DHT22;53067;48.114;11.694;2022-08-21T16:26:57;26.20;41.80
16503;DHT22;53067;48.114;11.694;2022-08-21T16:29:28;26.10;42.40
16503;DHT22;53067;48.114;11.694;2022-08-21T16:31:56;26.10;42.80
16503;DHT22;53067;48.114;11.694;2022-08-21T16:34:23;26.10;43.20
16503;DHT22;53067;48.114;11.694;2022-08-21T16:36:51;26.10;42.10
16503;DHT22;53067;48.114;11.694;2022-08-21T16:39:19;26.00;42.40
16503;DHT22;53067;48.114;11.694;2022-08-21T16:41:47;26.00;41.90
16503;DHT22;53067;48.114;11.694;2022-08-21T16:44:18;26.00;42.40
16503;DHT22;53067;48.114;11.694;2022-08-21T16:46:47;26.00;42.50
16503;DHT22;53067;48.114;11.694;2022-08-21T16:49:15;25.90;41.70
16503;DHT22;53067;48.114;11.694;2022-08-21T16:51:43;25.90;40.70
16503;DHT22;53067;48.114;11.694;2022-08-21T16:54:11;25.80;41.00
16503;DHT22;53067;48.114;11.694;2022-08-21T16:56:39;25.80;40.70
16503;DHT22;53067;48.114;11.694;2022-08-21T16:59:07;25.80;41.20
16503;DHT22;53067;48.114;11.694;2022-08-21T17:01:38;25.70;42.10